To NAV CANADA Home Page Login to a new session Search on AWWS site Feedback and Comments Disclaimer Vers la page française équivalente Tips FAQ What's new on the site To the Forecasts and Observations / NOTAM section To "File a Flight Plan" website Publications and other links Update of the User's profile FIC Telephone Numbers My Weather Data Folder Route Weather Data Regional Weather Data Local Weather Data To the Forecasts and Observations / NOTAM section
Request Generated 09/01/2015 at 03:51:52 UTC . Weather information available at that time is displayed.

METAR/TAF

HIGH LEVEL/AB    (show WxCam)

METAR CYOJ 010300Z 00000KT 15SM FEW055 BKN110 08/07 A2940 RMK CU2AC4
VIRGA N-NE PRESFR SLP965=
METAR CYOJ 010200Z 32003KT 250V350 15SM SCT055 BKN090 10/07 A2940 RMK
CU4AC2 VIRGA N-NE + W SLP967 DENSITY ALT 1300FT=
SPECI CYOJ 010106Z VRB04G16KT 15SM BKN075 BKN260 13/06 A2937 RMK
CU5CI1 TCU ASOCTD PRESFR SLP954 DENSITY ALT 1700FT=
METAR CYOJ 010100Z VRB08G18KT 15SM -RA BKN075 BKN090 12/03 A2937 RMK
CU6AC1 TCU ASOCTD PRESFR SLP956 DENSITY ALT 1600FT=

TAF CYOJ 010038Z 0101/0113 23008KT P6SM BKN080 TEMPO 0101/0103 P6SM
-SHRA PROB30 0101/0103 VRB15G25KT 4SM TSRA BKN060CB
FM010300 VRB03KT P6SM FEW050 SCT090
FM010700 VRB03KT P6SM SKC
RMK NXT FCST BY 010700Z=
Your time UTC time
Weather data provided by Environment Canada and NAV CANADA